Time;durP1;ratioP1;P1;durP2;ratioP2;P2;SDS_P1;SDS_P2;PMS_P1;PMS_P2;Temp;Humidity;BMP_temperature;BMP_pressure;BME280_temperature;BME280_humidity;BME280_pressure;Samples;Min_cycle;Max_cycle;Signal;HPM_P1;HPM_P2
2023/03/30 00:01:09;;;;;;;9.53;8.80;;;14.60;99.90;;;;;;5079497;28;20453;-78
2023/03/30 00:03:38;;;;;;;11.10;9.93;;;14.60;99.90;;;;;;5075553;28;20506;-81
2023/03/30 00:06:09;;;;;;;9.70;9.13;;;14.70;99.90;;;;;;5077762;28;20445;-75
2023/03/30 00:08:38;;;;;;;10.00;9.20;;;14.50;99.90;;;;;;5081140;28;20539;-81
2023/03/30 00:11:08;;;;;;;10.20;9.70;;;14.60;99.90;;;;;;5080768;28;20530;-79
2023/03/30 00:13:37;;;;;;;11.17;10.00;;;14.60;99.90;;;;;;5076718;28;20454;-78
2023/03/30 00:16:08;;;;;;;11.43;9.33;;;14.60;99.90;;;;;;5077111;28;20530;-76
2023/03/30 00:18:38;;;;;;;11.23;10.17;;;14.70;99.90;;;;;;5078894;28;20477;-80
2023/03/30 00:21:09;;;;;;;11.00;10.10;;;14.70;99.90;;;;;;5081983;28;20610;-77
2023/03/30 00:23:39;;;;;;;10.63;10.00;;;14.60;99.90;;;;;;5076675;28;21196;-75
2023/03/30 00:26:07;;;;;;;11.10;10.33;;;14.60;99.90;;;;;;5094155;28;20530;-77
2023/03/30 00:28:35;;;;;;;9.80;9.10;;;14.70;99.90;;;;;;5079674;28;20564;-77
2023/03/30 00:31:04;;;;;;;11.53;10.40;;;14.60;99.90;;;;;;5081719;28;21083;-80
2023/03/30 00:33:32;;;;;;;13.40;10.27;;;14.60;99.90;;;;;;5080103;28;20487;-80
2023/03/30 00:36:15;;;;;;;11.63;10.73;;;14.60;99.90;;;;;;5080961;28;20449;-79
2023/03/30 00:38:45;;;;;;;10.90;10.10;;;14.60;99.90;;;;;;5079411;28;20504;-80
2023/03/30 00:41:13;;;;;;;11.57;10.83;;;14.60;99.90;;;;;;5084768;28;20446;-77
2023/03/30 00:44:01;;;;;;;11.20;10.20;;;14.60;99.90;;;;;;5079607;28;20465;-78
2023/03/30 00:46:30;;;;;;;12.43;11.30;;;14.70;99.90;;;;;;5080472;28;20460;-78
2023/03/30 00:49:03;;;;;;;12.33;10.03;;;14.70;99.90;;;;;;5082537;28;20468;-77
2023/03/30 00:51:35;;;;;;;10.03;9.53;;;14.70;99.90;;;;;;5082788;28;21033;-78
2023/03/30 00:54:08;;;;;;;10.57;9.67;;;14.70;99.90;;;;;;5081704;28;20457;-79
2023/03/30 00:56:36;;;;;;;11.43;10.60;;;14.60;99.90;;;;;;5083141;28;20592;-79
2023/03/30 00:59:05;;;;;;;12.50;11.30;;;14.60;99.90;;;;;;5083042;28;20490;-78
2023/03/30 01:01:37;;;;;;;11.70;10.67;;;14.60;99.90;;;;;;5083726;28;20463;-79
2023/03/30 01:04:08;;;;;;;11.33;10.40;;;14.60;99.90;;;;;;5081419;28;20448;-77
2023/03/30 01:06:42;;;;;;;11.67;10.67;;;14.50;99.90;;;;;;5083071;28;20464;-78
2023/03/30 01:09:10;;;;;;;12.17;11.30;;;14.60;99.90;;;;;;5078419;28;20481;-77
2023/03/30 01:11:39;;;;;;;12.00;11.20;;;14.50;99.90;;;;;;5084112;28;20488;-78
2023/03/30 01:14:10;;;;;;;12.60;11.80;;;14.60;99.90;;;;;;5080649;28;20451;-77
2023/03/30 01:16:47;;;;;;;11.83;11.00;;;14.60;99.90;;;;;;5077379;28;20504;-75
2023/03/30 01:19:47;;;;;;;12.00;11.00;;;14.60;99.90;;;;;;5082366;28;20480;-76
2023/03/30 01:22:41;;;;;;;11.73;11.00;;;14.50;99.90;;;;;;5081827;28;20499;-76
2023/03/30 01:25:39;;;;;;;12.90;11.70;;;14.40;99.90;;;;;;5083194;28;20530;-74
2023/03/30 01:28:25;;;;;;;13.00;11.90;;;14.50;99.90;;;;;;5079593;28;20552;-79
2023/03/30 01:31:40;;;;;;;13.90;12.57;;;14.50;99.90;;;;;;5081913;28;20467;-78
2023/03/30 01:34:28;;;;;;;13.47;12.50;;;14.40;1.00;;;;;;5053585;28;20464;-76
2023/03/30 01:37:38;;;;;;;14.77;13.80;;;14.40;1.00;;;;;;5080740;28;20465;-76
2023/03/30 01:40:13;;;;;;;13.40;12.73;;;14.30;1.00;;;;;;5082581;28;21043;-79
2023/03/30 01:42:50;;;;;;;13.97;13.27;;;14.20;99.90;;;;;;5078022;28;20501;-80
2023/03/30 01:45:25;;;;;;;14.13;13.33;;;14.10;99.90;;;;;;5079289;28;20457;-77
2023/03/30 01:47:57;;;;;;;14.87;14.17;;;14.20;99.90;;;;;;5079244;28;20455;-76
2023/03/30 01:50:30;;;;;;;14.43;13.50;;;14.20;99.90;;;;;;5081284;28;20452;-77
2023/03/30 01:53:03;;;;;;;14.70;13.77;;;14.00;99.90;;;;;;5080202;28;21014;-80
2023/03/30 01:55:36;;;;;;;15.43;14.43;;;14.00;1.00;;;;;;5082095;28;20457;-79
2023/03/30 01:58:09;;;;;;;16.50;15.40;;;14.10;99.90;;;;;;5081203;28;20475;-78
2023/03/30 02:00:40;;;;;;;15.20;14.33;;;13.90;1.00;;;;;;5078750;28;20876;-79
2023/03/30 02:03:13;;;;;;;16.00;14.93;;;13.90;1.00;;;;;;5077607;28;20558;-78
2023/03/30 02:05:43;;;;;;;15.97;14.50;;;13.90;99.90;;;;;;5081645;28;20448;-76
2023/03/30 02:08:16;;;;;;;18.10;16.77;;;13.90;1.00;;;;;;5080754;28;20476;-80
2023/03/30 02:10:47;;;;;;;16.23;15.07;;;13.80;99.90;;;;;;5082005;28;21588;-74
2023/03/30 02:13:17;;;;;;;16.63;15.20;;;13.90;99.90;;;;;;5083936;28;20474;-76
2023/03/30 02:15:49;;;;;;;17.93;16.33;;;13.80;99.90;;;;;;5082030;28;20518;-75
2023/03/30 02:18:19;;;;;;;15.73;14.93;;;13.90;99.90;;;;;;5083828;28;22296;-76
2023/03/30 02:20:48;;;;;;;16.63;15.43;;;13.90;99.90;;;;;;5084309;28;20471;-78
2023/03/30 02:23:18;;;;;;;16.17;14.90;;;13.90;99.90;;;;;;5081763;28;20465;-74
2023/03/30 02:25:48;;;;;;;16.20;15.10;;;13.90;99.90;;;;;;5081606;28;20714;-78
2023/03/30 02:28:17;;;;;;;15.90;15.00;;;13.90;99.90;;;;;;5085639;28;20470;-78
2023/03/30 02:30:46;;;;;;;15.93;15.23;;;14.00;99.90;;;;;;5081357;28;20514;-77
2023/03/30 02:33:23;;;;;;;17.73;15.40;;;14.00;93.60;;;;;;5082733;28;21017;-74
2023/03/30 02:36:24;;;;;;;15.83;14.50;;;14.00;57.00;;;;;;5080763;28;20463;-78
2023/03/30 02:39:05;;;;;;;15.27;14.10;;;14.10;18.10;;;;;;5084749;28;20468;-78
2023/03/30 02:41:59;;;;;;;15.87;14.67;;;14.10;1.00;;;;;;5080781;28;20475;-77
2023/03/30 02:44:35;;;;;;;15.53;14.50;;;14.10;1.00;;;;;;5084740;28;20467;-77
2023/03/30 02:47:09;;;;;;;16.07;14.77;;;14.10;1.00;;;;;;5080662;28;20487;-74
2023/03/30 02:49:54;;;;;;;15.30;14.23;;;14.10;24.00;;;;;;5084894;28;20469;-76
2023/03/30 02:52:35;;;;;;;15.47;14.70;;;14.10;99.90;;;;;;5086562;28;20577;-80
2023/03/30 02:55:12;;;;;;;15.80;14.77;;;14.00;1.00;;;;;;5081676;28;20708;-79
2023/03/30 02:57:51;;;;;;;16.10;15.00;;;14.00;99.90;;;;;;5082491;28;20493;-77
2023/03/30 03:00:25;;;;;;;16.03;14.90;;;13.90;1.00;;;;;;5085686;28;20455;-78
2023/03/30 03:02:57;;;;;;;15.73;14.80;;;13.90;1.00;;;;;;5086271;28;20501;-80
2023/03/30 03:05:27;;;;;;;16.13;14.90;;;13.80;27.70;;;;;;5083195;28;20457;-77
2023/03/30 03:07:56;;;;;;;15.03;14.20;;;13.70;99.90;;;;;;5080356;28;20482;-78
2023/03/30 03:10:24;;;;;;;14.90;14.20;;;13.70;1.00;;;;;;5077267;28;20462;-77
2023/03/30 03:12:53;;;;;;;15.33;14.33;;;13.60;99.90;;;;;;5081503;28;20486;-79
2023/03/30 03:15:22;;;;;;;16.30;15.30;;;13.60;99.90;;;;;;5076860;28;20534;-79
2023/03/30 03:17:50;;;;;;;16.57;15.60;;;13.60;99.90;;;;;;5084042;28;20450;-76
2023/03/30 03:20:19;;;;;;;17.00;15.97;;;13.50;1.00;;;;;;5081890;28;20447;-78
2023/03/30 03:22:47;;;;;;;15.80;14.80;;;13.50;1.00;;;;;;5083696;28;20873;-79
2023/03/30 03:25:15;;;;;;;18.33;16.90;;;13.50;54.10;;;;;;5083187;28;20453;-78
2023/03/30 03:27:43;;;;;;;15.50;14.60;;;13.50;43.80;;;;;;5082645;28;20462;-76
2023/03/30 03:30:13;;;;;;;16.30;15.40;;;13.50;1.00;;;;;;5082823;28;20488;-75
2023/03/30 03:32:41;;;;;;;16.33;15.30;;;13.50;1.00;;;;;;5084333;28;21385;-76
2023/03/30 03:35:10;;;;;;;17.00;16.10;;;13.50;99.90;;;;;;5081865;28;20450;-79
2023/03/30 03:37:38;;;;;;;16.90;15.70;;;13.50;1.00;;;;;;5081984;28;20461;-79
2023/03/30 03:40:08;;;;;;;17.37;15.90;;;13.40;99.90;;;;;;5082661;28;20483;-77
2023/03/30 03:42:36;;;;;;;18.00;16.50;;;13.50;99.90;;;;;;5082102;28;20452;-78
2023/03/30 03:45:06;;;;;;;17.40;16.20;;;13.40;99.90;;;;;;5082638;28;20488;-76
2023/03/30 03:47:35;;;;;;;16.90;16.00;;;13.40;1.00;;;;;;5082646;28;20454;-77
2023/03/30 03:50:08;;;;;;;18.50;17.03;;;13.40;99.90;;;;;;5082621;28;20540;-79
2023/03/30 03:52:36;;;;;;;18.80;17.37;;;13.50;99.90;;;;;;5084420;28;20470;-78
2023/03/30 03:55:05;;;;;;;18.30;16.87;;;13.50;55.80;;;;;;5083738;28;20455;-78
2023/03/30 03:57:33;;;;;;;18.57;17.37;;;13.50;1.00;;;;;;5078564;28;20456;-79
2023/03/30 04:00:01;;;;;;;18.17;17.10;;;13.50;99.90;;;;;;5080975;28;20584;-79
2023/03/30 04:02:29;;;;;;;18.23;17.03;;;13.50;99.90;;;;;;5077988;28;20464;-78
2023/03/30 04:04:59;;;;;;;18.57;17.17;;;13.50;99.90;;;;;;5078798;28;20550;-78
2023/03/30 04:07:28;;;;;;;17.87;16.57;;;13.50;99.90;;;;;;5085480;28;20455;-79
2023/03/30 04:09:56;;;;;;;18.10;16.80;;;13.50;1.00;;;;;;5080402;28;20476;-79
2023/03/30 04:12:24;;;;;;;18.37;17.33;;;13.40;32.90;;;;;;5082724;28;20507;-79
2023/03/30 04:14:52;;;;;;;19.20;17.43;;;13.40;99.90;;;;;;5080681;28;20520;-79
2023/03/30 04:17:22;;;;;;;18.07;17.00;;;13.50;1.00;;;;;;5081577;28;20457;-79
2023/03/30 04:19:52;;;;;;;18.77;17.00;;;13.50;1.00;;;;;;5081299;28;20540;-76
2023/03/30 04:22:24;;;;;;;19.43;18.03;;;13.50;99.90;;;;;;5085832;28;20448;-78
2023/03/30 04:24:52;;;;;;;20.40;18.93;;;13.50;99.90;;;;;;5082566;28;20531;-78
2023/03/30 04:27:20;;;;;;;19.20;17.80;;;13.60;73.20;;;;;;5081731;28;20543;-75
2023/03/30 04:29:48;;;;;;;18.93;17.80;;;13.60;30.10;;;;;;5081298;28;20475;-78
2023/03/30 04:32:19;;;;;;;20.20;18.83;;;13.60;99.90;;;;;;5081346;28;20995;-76
2023/03/30 04:34:48;;;;;;;19.30;17.53;;;13.60;1.00;;;;;;5080055;28;20461;-78
2023/03/30 04:37:17;;;;;;;19.63;18.17;;;13.50;1.00;;;;;;5081350;28;20468;-74
2023/03/30 04:39:49;;;;;;;19.73;18.40;;;13.60;99.90;;;;;;5079256;28;20500;-75
2023/03/30 04:42:18;;;;;;;19.17;18.20;;;13.60;1.00;;;;;;5083652;28;20455;-80
2023/03/30 04:44:47;;;;;;;20.10;18.30;;;13.60;1.00;;;;;;5079212;28;20458;-76
2023/03/30 04:47:18;;;;;;;18.23;17.20;;;13.60;13.90;;;;;;5083012;28;20463;-79
2023/03/30 04:49:46;;;;;;;19.40;18.00;;;13.60;1.00;;;;;;5082687;28;21004;-77
2023/03/30 04:52:14;;;;;;;20.23;18.50;;;13.60;99.90;;;;;;5083098;28;20464;-74
2023/03/30 04:54:42;;;;;;;21.50;19.70;;;13.60;99.90;;;;;;5082257;28;20483;-74
2023/03/30 04:57:12;;;;;;;19.60;18.20;;;13.60;1.00;;;;;;5083564;28;20456;-76
2023/03/30 04:59:41;;;;;;;18.83;17.60;;;13.60;1.00;;;;;;5082063;28;20481;-76
2023/03/30 05:02:10;;;;;;;18.43;17.53;;;13.60;99.90;;;;;;5073430;28;20464;-79
2023/03/30 05:04:39;;;;;;;18.50;17.33;;;13.50;1.00;;;;;;5081908;28;20500;-74
2023/03/30 05:07:08;;;;;;;19.53;18.33;;;13.50;99.90;;;;;;5081747;28;20447;-79
2023/03/30 05:09:36;;;;;;;19.77;18.23;;;13.60;99.90;;;;;;5080856;28;20471;-74
2023/03/30 05:12:05;;;;;;;18.93;17.87;;;13.60;1.00;;;;;;5083598;28;20957;-78
2023/03/30 05:14:34;;;;;;;19.37;18.37;;;13.60;1.00;;;;;;5084755;28;20501;-76
2023/03/30 05:17:02;;;;;;;19.60;18.17;;;13.50;1.00;;;;;;5081814;28;20517;-78
2023/03/30 05:19:30;;;;;;;20.63;19.40;;;13.50;1.00;;;;;;5082238;28;20470;-78
2023/03/30 05:21:59;;;;;;;20.20;18.97;;;13.50;1.00;;;;;;5083429;28;20452;-79
2023/03/30 05:24:27;;;;;;;19.90;18.80;;;13.50;1.00;;;;;;5084488;28;20456;-78
2023/03/30 05:26:55;;;;;;;20.97;19.17;;;13.40;99.90;;;;;;5077881;28;20485;-76
2023/03/30 05:29:24;;;;;;;21.13;19.50;;;13.40;1.00;;;;;;5066890;28;20483;-79
2023/03/30 05:31:53;;;;;;;20.97;18.90;;;13.40;99.90;;;;;;5080681;28;20451;-78
2023/03/30 05:34:21;;;;;;;21.23;19.20;;;13.40;99.90;;;;;;5082269;28;20474;-78
2023/03/30 05:36:50;;;;;;;21.83;19.60;;;13.40;99.90;;;;;;5082979;28;20590;-79
2023/03/30 05:39:18;;;;;;;20.63;18.83;;;13.40;1.00;;;;;;5081952;28;20481;-76
2023/03/30 05:41:46;;;;;;;20.90;19.33;;;13.40;1.00;;;;;;5087029;28;20448;-79
2023/03/30 05:44:14;;;;;;;20.47;19.00;;;13.50;99.90;;;;;;5085034;28;20447;-78
2023/03/30 05:46:42;;;;;;;21.23;19.53;;;13.50;1.00;;;;;;5085283;28;20472;-80
2023/03/30 05:49:12;;;;;;;20.63;18.90;;;13.40;1.00;;;;;;5080225;28;20486;-79
2023/03/30 05:51:40;;;;;;;20.20;18.90;;;13.40;99.90;;;;;;5089776;28;20819;-79
2023/03/30 05:54:11;;;;;;;19.80;18.60;;;13.50;99.90;;;;;;5086820;28;20500;-77
2023/03/30 05:56:41;;;;;;;20.27;18.77;;;13.50;49.50;;;;;;5085322;28;21300;-77
2023/03/30 05:59:11;;;;;;;20.87;19.20;;;13.50;1.00;;;;;;5087105;28;20896;-79
2023/03/30 06:01:40;;;;;;;19.80;18.33;;;13.50;48.30;;;;;;5087793;28;20455;-79
2023/03/30 06:04:08;;;;;;;19.83;18.53;;;13.50;99.90;;;;;;5084403;28;20448;-81
2023/03/30 06:06:38;;;;;;;20.30;18.47;;;13.50;95.00;;;;;;5086019;28;20452;-76
2023/03/30 06:09:06;;;;;;;19.50;18.30;;;13.60;33.30;;;;;;5080666;28;20470;-80
2023/03/30 06:11:34;;;;;;;21.00;19.33;;;13.60;82.30;;;;;;5079409;28;21020;-79
2023/03/30 06:14:02;;;;;;;20.87;19.10;;;13.70;99.90;;;;;;5079583;28;20490;-77
2023/03/30 06:16:30;;;;;;;20.33;19.13;;;13.60;99.90;;;;;;5082447;28;20454;-78
2023/03/30 06:18:59;;;;;;;22.47;19.77;;;13.60;99.90;;;;;;5084875;28;20553;-77
2023/03/30 06:21:27;;;;;;;20.73;19.10;;;13.50;1.00;;;;;;5083239;28;20548;-79
2023/03/30 06:23:56;;;;;;;20.53;18.80;;;13.50;99.90;;;;;;5085048;28;20438;-76
2023/03/30 06:26:25;;;;;;;20.10;18.70;;;13.50;99.90;;;;;;5087044;28;20872;-79
2023/03/30 06:28:53;;;;;;;20.67;19.10;;;13.50;1.00;;;;;;5077810;28;20560;-79
2023/03/30 06:31:21;;;;;;;20.10;18.70;;;13.50;99.90;;;;;;5085291;28;20673;-78
2023/03/30 06:33:50;;;;;;;19.20;18.20;;;13.60;99.90;;;;;;5083747;28;20475;-78
2023/03/30 06:36:18;;;;;;;20.47;19.27;;;13.60;5.10;;;;;;5087748;28;20455;-78
2023/03/30 06:38:47;;;;;;;20.37;18.57;;;13.60;1.00;;;;;;5086062;28;20475;-78
2023/03/30 06:41:16;;;;;;;21.00;19.60;;;13.60;99.90;;;;;;5083231;28;20457;-78
2023/03/30 06:43:44;;;;;;;18.67;17.77;;;13.60;99.90;;;;;;5083111;28;20492;-79
2023/03/30 06:46:13;;;;;;;20.37;19.17;;;13.60;1.00;;;;;;5085107;28;21353;-79
2023/03/30 06:48:42;;;;;;;20.03;18.93;;;13.70;1.00;;;;;;5083102;28;20488;-78
2023/03/30 06:51:11;;;;;;;19.50;18.10;;;13.70;1.00;;;;;;5081973;28;20980;-78
2023/03/30 06:53:40;;;;;;;19.67;18.63;;;13.80;99.90;;;;;;5084439;28;20460;-78
2023/03/30 06:56:10;;;;;;;20.90;19.20;;;13.90;1.00;;;;;;5085613;28;20906;-78
2023/03/30 06:58:40;;;;;;;18.97;17.60;;;13.90;99.90;;;;;;5086858;28;20481;-76
2023/03/30 07:01:10;;;;;;;18.43;17.57;;;13.90;1.00;;;;;;5066976;28;20451;-79
2023/03/30 07:03:38;;;;;;;19.47;18.30;;;13.90;99.90;;;;;;5072845;28;20556;-79
2023/03/30 07:06:08;;;;;;;19.73;18.23;;;13.90;99.90;;;;;;5084902;28;20440;-78
2023/03/30 07:08:37;;;;;;;19.53;18.43;;;13.80;99.90;;;;;;5081053;28;21071;-80
2023/03/30 07:11:06;;;;;;;19.87;18.53;;;13.80;1.00;;;;;;5083368;28;20497;-82
2023/03/30 07:13:35;;;;;;;19.20;18.10;;;13.70;79.10;;;;;;5084109;28;20450;-78
2023/03/30 07:16:05;;;;;;;20.80;19.20;;;13.70;99.90;;;;;;5082084;28;20489;-78
2023/03/30 07:18:33;;;;;;;20.00;18.57;;;13.70;99.90;;;;;;5083535;28;20471;-78
2023/03/30 07:21:03;;;;;;;19.67;18.50;;;13.70;91.60;;;;;;5084355;28;20445;-78
2023/03/30 07:23:31;;;;;;;20.13;18.57;;;13.70;1.00;;;;;;5084312;28;21029;-78
2023/03/30 07:26:00;;;;;;;20.27;18.67;;;13.70;1.00;;;;;;5083134;28;20447;-80
2023/03/30 07:28:28;;;;;;;21.00;19.30;;;13.60;99.90;;;;;;5078631;28;20485;-79
2023/03/30 07:31:06;;;;;;;20.40;18.77;;;13.60;99.90;;;;;;5082428;28;20447;-79
2023/03/30 07:33:35;;;;;;;21.07;19.83;;;13.60;99.90;;;;;;5082675;28;20463;-78
2023/03/30 07:36:04;;;;;;;22.07;20.10;;;13.60;1.00;;;;;;5083392;28;20851;-77
2023/03/30 07:38:33;;;;;;;27.97;24.80;;;13.50;1.00;;;;;;5085942;28;20485;-79
2023/03/30 07:41:01;;;;;;;51.70;35.77;;;13.50;1.00;;;;;;5084570;28;20462;-78
2023/03/30 07:43:30;;;;;;;29.33;26.53;;;13.50;1.00;;;;;;5084133;28;20465;-79
2023/03/30 07:45:58;;;;;;;30.30;27.33;;;13.40;1.00;;;;;;5085907;28;20542;-79
2023/03/30 07:48:28;;;;;;;25.00;22.67;;;13.50;1.00;;;;;;5086478;28;20562;-77
2023/03/30 07:51:01;;;;;;;27.70;24.90;;;13.40;1.00;;;;;;5083622;28;21231;-77
2023/03/30 07:53:30;;;;;;;26.63;22.90;;;13.40;1.00;;;;;;5084904;28;20445;-77
2023/03/30 07:55:58;;;;;;;21.97;19.90;;;13.40;1.00;;;;;;5082803;28;20474;-79
2023/03/30 07:58:27;;;;;;;21.17;19.50;;;13.40;1.00;;;;;;5084479;28;20466;-77
2023/03/30 08:00:56;;;;;;;21.47;19.80;;;13.40;1.00;;;;;;5083687;28;20519;-76
2023/03/30 08:03:24;;;;;;;22.30;20.50;;;13.50;1.00;;;;;;5082960;28;21182;-78
2023/03/30 08:05:56;;;;;;;20.83;19.10;;;13.50;1.00;;;;;;5084956;28;20513;-78
2023/03/30 08:08:24;;;;;;;20.93;18.90;;;13.40;1.00;;;;;;5079214;28;20475;-78
2023/03/30 08:10:52;;;;;;;19.23;17.90;;;13.40;1.00;;;;;;5084172;28;20462;-78
2023/03/30 08:13:20;;;;;;;19.17;17.77;;;13.40;1.00;;;;;;5084463;28;20460;-79
2023/03/30 08:15:49;;;;;;;20.20;18.90;;;13.50;1.00;;;;;;5081394;28;20504;-78
2023/03/30 08:18:18;;;;;;;19.67;18.50;;;13.50;1.00;;;;;;5083876;28;21212;-77
2023/03/30 08:20:51;;;;;;;19.50;18.20;;;13.50;1.00;;;;;;5081870;28;21005;-79
2023/03/30 08:23:22;;;;;;;19.30;17.90;;;13.60;1.00;;;;;;5082308;28;20472;-78
2023/03/30 08:25:51;;;;;;;19.53;18.53;;;13.60;1.00;;;;;;5083735;28;21189;-80
2023/03/30 08:28:21;;;;;;;18.97;18.07;;;13.50;1.00;;;;;;5078223;28;20779;-82
2023/03/30 08:30:49;;;;;;;18.70;17.67;;;13.50;1.00;;;;;;5081921;28;20460;-77
2023/03/30 08:33:17;;;;;;;20.47;19.17;;;13.60;1.00;;;;;;5078749;28;20452;-74
2023/03/30 08:35:46;;;;;;;19.47;18.40;;;13.60;2.70;;;;;;5081812;28;20847;-77
2023/03/30 08:38:16;;;;;;;20.50;19.00;;;13.60;9.30;;;;;;5082082;28;20934;-78
2023/03/30 08:40:47;;;;;;;19.53;18.40;;;13.60;7.70;;;;;;5080283;28;20832;-78
2023/03/30 08:43:32;;;;;;;18.73;17.73;;;13.60;1.00;;;;;;5081614;28;20442;-78
2023/03/30 08:46:02;;;;;;;18.73;17.17;;;13.50;1.00;;;;;;5083859;28;21153;-77
2023/03/30 08:48:36;;;;;;;18.10;17.10;;;13.50;1.00;;;;;;5076479;28;20487;-77
2023/03/30 08:51:15;;;;;;;17.10;16.30;;;13.50;1.00;;;;;;5082701;28;21058;-77
2023/03/30 08:53:43;;;;;;;17.20;16.60;;;13.50;1.00;;;;;;5080394;28;20546;-78
2023/03/30 08:56:20;;;;;;;17.40;16.60;;;13.50;1.00;;;;;;5080808;28;20498;-78
2023/03/30 08:58:55;;;;;;;17.17;16.57;;;13.40;1.00;;;;;;5083829;28;20542;-77
2023/03/30 09:01:29;;;;;;;17.10;16.50;;;13.40;1.00;;;;;;5081025;28;20975;-78
2023/03/30 09:04:05;;;;;;;17.37;16.67;;;13.40;99.90;;;;;;5083617;28;20856;-78
2023/03/30 09:06:46;;;;;;;17.27;16.77;;;13.30;99.90;;;;;;5080911;28;20450;-78
2023/03/30 09:09:18;;;;;;;17.27;16.67;;;13.20;99.90;;;;;;5080513;28;21163;-77
2023/03/30 09:11:51;;;;;;;17.10;16.50;;;13.20;99.90;;;;;;5076566;28;21091;-78
2023/03/30 09:14:29;;;;;;;17.03;16.40;;;13.20;99.90;;;;;;5080874;28;20439;-79
2023/03/30 09:17:03;;;;;;;16.80;16.30;;;13.10;1.00;;;;;;5086806;28;20878;-79
2023/03/30 09:19:36;;;;;;;17.93;16.93;;;13.10;1.00;;;;;;5087364;28;20523;-79
2023/03/30 09:22:07;;;;;;;16.67;16.07;;;13.10;99.90;;;;;;5087994;28;20989;-79
2023/03/30 09:24:35;;;;;;;17.53;16.63;;;13.10;99.90;;;;;;5082717;28;20501;-78
2023/03/30 09:27:13;;;;;;;17.00;16.50;;;13.10;99.90;;;;;;5081449;28;20823;-76
2023/03/30 09:29:46;;;;;;;17.33;16.43;;;13.10;99.90;;;;;;5079228;28;21292;-79
2023/03/30 09:32:21;;;;;;;17.40;16.60;;;13.10;79.80;;;;;;5086302;28;20452;-78
2023/03/30 09:34:57;;;;;;;17.63;16.83;;;13.00;99.90;;;;;;5084445;28;20577;-78
2023/03/30 09:37:26;;;;;;;18.07;17.07;;;13.10;1.00;;;;;;5083116;28;20455;-78
2023/03/30 09:39:54;;;;;;;18.87;17.80;;;13.20;1.00;;;;;;5084343;28;20466;-74
2023/03/30 09:42:32;;;;;;;17.07;16.37;;;13.20;1.00;;;;;;5087990;28;20463;-78
2023/03/30 09:45:06;;;;;;;17.37;16.67;;;13.30;99.90;;;;;;5087710;28;20479;-77
2023/03/30 09:47:36;;;;;;;17.40;16.80;;;13.30;99.90;;;;;;5086881;28;20440;-78
2023/03/30 09:50:07;;;;;;;17.87;16.97;;;13.40;1.00;;;;;;5084432;28;20503;-79
2023/03/30 09:52:39;;;;;;;19.43;18.30;;;13.40;99.90;;;;;;5087814;28;20931;-78
2023/03/30 09:55:24;;;;;;;17.57;16.97;;;13.50;1.00;;;;;;5084263;28;20826;-79
2023/03/30 09:57:54;;;;;;;18.23;17.43;;;13.50;99.90;;;;;;5081305;28;20522;-77
2023/03/30 10:00:26;;;;;;;17.87;17.27;;;13.60;1.00;;;;;;5084715;28;20463;-79
2023/03/30 10:02:56;;;;;;;18.53;17.73;;;13.60;1.00;;;;;;5085162;28;20533;-78
2023/03/30 10:05:26;;;;;;;18.60;17.63;;;13.60;99.90;;;;;;5085368;28;20459;-79
2023/03/30 10:07:56;;;;;;;18.27;17.67;;;13.70;99.90;;;;;;5084281;28;20439;-73
2023/03/30 10:10:32;;;;;;;18.57;17.53;;;13.80;99.90;;;;;;5085021;28;20457;-77
2023/03/30 10:13:08;;;;;;;18.93;18.03;;;13.80;99.90;;;;;;5086233;28;20475;-79
2023/03/30 10:15:39;;;;;;;17.70;17.10;;;13.70;1.00;;;;;;5084114;28;20451;-79
2023/03/30 10:18:23;;;;;;;18.17;17.47;;;13.80;1.00;;;;;;5084440;28;20460;-74
2023/03/30 10:20:53;;;;;;;18.70;17.90;;;13.70;1.00;;;;;;5083013;28;20446;-75
2023/03/30 10:23:23;;;;;;;18.30;17.70;;;13.70;99.90;;;;;;5083779;28;20460;-78
2023/03/30 10:26:02;;;;;;;18.00;17.40;;;13.70;1.00;;;;;;5085169;28;20460;-78
2023/03/30 10:28:34;;;;;;;18.50;17.70;;;13.80;99.90;;;;;;5086487;28;20477;-80
2023/03/30 10:31:06;;;;;;;18.37;17.47;;;13.80;72.80;;;;;;5085344;28;21482;-79
2023/03/30 10:33:41;;;;;;;18.50;17.80;;;13.80;99.90;;;;;;5084579;28;20509;-80
2023/03/30 10:36:11;;;;;;;18.20;17.30;;;13.70;1.00;;;;;;5084591;28;20467;-79
2023/03/30 10:38:41;;;;;;;19.03;18.03;;;13.80;40.60;;;;;;5083263;28;20510;-79
2023/03/30 10:41:12;;;;;;;18.53;17.63;;;13.60;99.90;;;;;;5083966;28;20956;-77
2023/03/30 10:43:43;;;;;;;18.70;17.90;;;13.70;99.90;;;;;;5083173;28;20533;-76
2023/03/30 10:46:14;;;;;;;19.20;18.43;;;13.70;99.90;;;;;;5084305;28;20988;-79
2023/03/30 10:49:04;;;;;;;18.90;17.90;;;13.70;99.90;;;;;;5085619;28;21027;-77
2023/03/30 10:51:43;;;;;;;18.53;17.63;;;13.70;99.90;;;;;;5084941;28;20446;-74
2023/03/30 10:54:18;;;;;;;19.13;17.87;;;13.70;99.90;;;;;;5084203;28;20540;-77
2023/03/30 10:56:51;;;;;;;19.17;18.10;;;13.80;99.90;;;;;;5082016;28;20567;-78
2023/03/30 10:59:41;;;;;;;18.40;17.70;;;13.80;1.00;;;;;;5085154;28;20480;-77
2023/03/30 11:02:40;;;;;;;18.53;17.73;;;13.80;1.00;;;;;;5085071;28;20459;-78
2023/03/30 11:05:15;;;;;;;18.97;17.83;;;13.80;1.00;;;;;;5083141;28;21034;-76
2023/03/30 11:07:47;;;;;;;18.43;17.70;;;13.80;1.00;;;;;;5085482;28;20447;-77
2023/03/30 11:10:19;;;;;;;20.80;19.37;;;13.80;1.00;;;;;;5083775;28;20478;-76
2023/03/30 11:12:51;;;;;;;21.37;20.17;;;13.80;1.00;;;;;;5085988;28;21239;-74
2023/03/30 11:15:26;;;;;;;19.47;18.50;;;13.90;1.00;;;;;;5079404;28;20533;-75
2023/03/30 11:18:03;;;;;;;18.60;17.80;;;13.70;1.00;;;;;;5085541;28;20515;-78
2023/03/30 11:20:35;;;;;;;18.60;17.80;;;13.60;1.00;;;;;;5084386;28;20455;-76
2023/03/30 11:23:10;;;;;;;19.17;18.37;;;13.50;1.00;;;;;;5085948;28;20450;-76
2023/03/30 11:25:46;;;;;;;18.93;18.10;;;13.50;1.00;;;;;;5084754;28;20464;-75
2023/03/30 11:28:21;;;;;;;19.53;18.50;;;13.50;1.00;;;;;;5078251;28;20482;-78
2023/03/30 11:30:54;;;;;;;19.93;18.93;;;13.70;1.00;;;;;;5082640;28;20445;-76
2023/03/30 11:33:29;;;;;;;19.93;18.93;;;13.70;1.00;;;;;;5084809;28;20455;-79
2023/03/30 11:36:03;;;;;;;19.63;18.57;;;13.80;1.00;;;;;;5088591;28;21208;-76
2023/03/30 11:38:40;;;;;;;19.63;18.60;;;13.80;1.00;;;;;;5083535;28;20552;-76
2023/03/30 11:41:13;;;;;;;18.67;17.87;;;13.80;1.00;;;;;;5077533;28;20444;-78
2023/03/30 11:43:42;;;;;;;19.47;18.57;;;13.70;1.00;;;;;;5084060;28;20446;-78
2023/03/30 11:46:18;;;;;;;19.97;19.10;;;13.70;1.00;;;;;;5084144;28;20509;-78
2023/03/30 11:49:11;;;;;;;19.83;18.83;;;13.80;1.00;;;;;;5082075;28;20567;-76
2023/03/30 11:51:55;;;;;;;18.97;18.10;;;13.80;1.00;;;;;;5083106;28;20486;-77
2023/03/30 11:55:05;;;;;;;19.07;18.27;;;13.80;1.00;;;;;;5082686;28;20559;-79
2023/03/30 11:57:40;;;;;;;19.23;18.33;;;13.90;1.00;;;;;;5034314;28;20483;-78
2023/03/30 12:00:33;;;;;;;19.00;18.30;;;14.00;1.00;;;;;;5081916;28;20482;-78
2023/03/30 12:03:15;;;;;;;19.23;18.17;;;14.00;1.00;;;;;;5080329;28;20471;-79
2023/03/30 12:05:45;;;;;;;20.30;19.10;;;14.10;1.00;;;;;;5082861;28;21325;-78
2023/03/30 12:08:27;;;;;;;20.73;19.40;;;14.10;1.00;;;;;;5082854;28;20462;-80
2023/03/30 12:11:01;;;;;;;20.17;18.87;;;14.20;99.90;;;;;;5084510;28;20720;-78
2023/03/30 12:13:30;;;;;;;20.40;19.20;;;14.10;99.90;;;;;;5081991;28;20485;-77
2023/03/30 12:16:20;;;;;;;20.73;19.50;;;14.10;99.90;;;;;;5082748;28;20458;-76
2023/03/30 12:19:03;;;;;;;19.97;18.87;;;14.10;25.40;;;;;;5084050;28;21035;-78
2023/03/30 12:21:33;;;;;;;20.97;19.53;;;14.10;99.90;;;;;;5083443;28;20453;-75
2023/03/30 12:24:12;;;;;;;20.93;19.80;;;14.20;99.90;;;;;;5077792;28;20461;-79
2023/03/30 12:26:40;;;;;;;20.23;19.10;;;14.30;1.00;;;;;;5082909;28;20897;-76
2023/03/30 12:29:17;;;;;;;21.53;20.27;;;14.40;99.90;;;;;;5076276;28;20484;-76
2023/03/30 12:32:18;;;;;;;21.00;20.00;;;14.40;99.90;;;;;;5082784;28;20479;-80
2023/03/30 12:34:48;;;;;;;20.87;19.83;;;14.50;1.00;;;;;;5082247;28;20862;-81
2023/03/30 12:37:20;;;;;;;22.33;20.90;;;14.60;99.90;;;;;;5085054;28;20460;-75
2023/03/30 12:39:53;;;;;;;20.63;19.77;;;14.60;99.90;;;;;;5078673;28;20570;-77
2023/03/30 12:42:33;;;;;;;20.57;19.30;;;14.70;53.80;;;;;;5082335;28;20454;-78
2023/03/30 12:45:19;;;;;;;20.80;19.70;;;14.80;99.90;;;;;;5084641;28;20469;-75
2023/03/30 12:48:09;;;;;;;19.73;18.70;;;14.90;99.90;;;;;;5080142;28;20487;-78
2023/03/30 12:50:50;;;;;;;20.70;19.70;;;15.00;1.00;;;;;;5079764;28;20631;-79
2023/03/30 12:53:47;;;;;;;19.70;18.80;;;15.10;99.90;;;;;;5083590;28;20448;-75
2023/03/30 12:56:27;;;;;;;20.17;19.07;;;15.00;99.90;;;;;;5082365;28;20459;-80
2023/03/30 12:59:35;;;;;;;20.73;19.80;;;14.90;99.90;;;;;;5078866;28;21083;-79